Date,TemperatureHighF,TemperatureAvgF,TemperatureLowF,DewpointHighF,DewpointAvgF,DewpointLowF,HumidityHigh,HumidityAvg,HumidityLow,PressureMaxIn,PressureMinIn,WindSpeedMaxMPH,WindSpeedAvgMPH,GustSpeedMaxMPH,PrecipitationSumIn
2013-5-1,81.6,70.9,66.1,72.0,67.2,64.0,97,88,64,29.91,29.82,6,2,0,0.07
2013-5-2,81.2,69.4,64.6,69.0,65.5,63.0,96,88,60,29.97,29.87,6,1,0,0.28
2013-5-3,66.7,54.7,42.9,66.0,51.7,41.0,96,90,77,30.07,29.93,10,2,0,0.06
2013-5-4,75.2,57.5,39.0,52.0,45.2,38.0,100,69,33,30.05,29.87,8,1,0,0.00
2013-5-5,66.5,56.2,47.0,52.0,46.0,44.0,89,71,47,30.06,29.91,8,2,0,0.00
2013-5-6,77.4,68.6,46.5,59.0,54.8,44.0,90,63,46,30.07,29.94,10,2,0,0.00
2013-5-7,83.4,68.2,52.2,63.0,57.0,51.0,96,71,41,30.07,29.99,10,1,0,0.00
2013-5-8,86.8,71.3,54.7,67.0,61.0,53.0,96,73,43,30.11,30.03,5,0,0,0.00
2013-5-9,86.5,73.3,60.4,70.0,65.4,59.0,97,78,53,30.10,29.99,9,1,0,0.00
2013-5-10,73.8,68.9,63.4,70.0,66.5,62.0,96,92,83,30.05,29.82,13,2,0,2.17
2013-5-11,80.3,70.5,62.1,71.0,66.1,61.0,97,86,69,30.05,29.89,6,0,0,0.20
2013-5-12,65.4,61.4,57.1,54.0,52.9,52.0,83,74,67,30.18,30.15,0,0,0,0.00
2013-5-13,83.9,65.9,49.1,60.0,51.4,47.0,94,64,31,30.31,30.18,7,1,0,0.00
2013-5-14,88.2,71.6,54.5,64.0,58.3,53.0,96,67,35,30.29,30.14,4,0,0,0.00
2013-5-15,86.3,70.0,56.9,69.0,61.3,55.0,96,77,43,30.19,30.02,8,0,0,0.00
2013-5-16,86.4,73.5,60.9,69.0,64.9,60.0,96,77,46,30.04,29.89,12,1,0,0.00
2013-5-17,89.9,78.4,68.6,75.0,71.3,66.0,96,80,59,30.02,29.93,5,1,0,0.00
2013-5-18,92.3,80.7,73.3,76.0,72.6,69.0,94,78,54,30.06,29.97,6,0,0,0.00
2013-5-19,91.4,80.3,71.4,77.0,72.8,70.0,97,79,56,30.00,29.92,8,1,0,0.00
2013-5-20,93.8,82.7,75.5,77.0,74.8,73.0,93,78,56,30.00,29.88,6,1,0,0.00
2013-5-21,93.1,82.5,74.9,78.0,74.5,72.0,94,78,57,29.95,29.79,7,1,0,0.00
2013-5-22,83.8,74.4,67.1,74.0,70.4,66.0,96,88,70,29.98,29.85,10,1,0,3.65
2013-5-23,94.2,77.2,66.6,78.0,71.5,66.0,97,84,54,30.07,29.96,4,0,0,0.15
2013-5-24,93.6,77.3,64.6,79.0,70.6,64.0,97,81,54,30.15,30.04,5,1,0,0.07
2013-5-25,90.6,77.8,67.2,71.0,66.0,60.0,86,69,48,30.23,30.11,8,1,0,0.00
2013-5-26,89.0,77.3,67.8,72.0,68.2,65.0,95,75,46,30.19,30.09,6,1,0,0.00
2013-5-27,91.9,78.8,66.3,73.0,69.4,65.0,95,75,50,30.12,29.99,8,1,0,0.00
2013-5-28,89.5,78.7,69.0,75.0,70.9,67.0,95,78,60,30.06,29.96,11,2,0,0.00
2013-5-29,85.9,77.0,68.7,78.0,72.2,66.0,96,85,72,30.01,29.91,13,3,0,0.05
2013-5-30,89.1,79.9,74.2,79.0,75.0,73.0,96,86,66,29.99,29.90,18,3,0,0.04
2013-5-31,91.9,82.0,74.3,80.0,75.8,73.0,96,82,64,30.00,29.91,7,1,0,0.00